sensor_id;sensor_type;location;lat;lon;timestamp;pressure;altitude;pressure_sealevel;temperature;humidity
2549;BME280;1284;53.520;10.248;2023-05-02T00:01:58;100769.38;;;16.43;66.98
2549;BME280;1284;53.520;10.248;2023-05-02T00:04:23;100774.41;;;16.38;68.05
2549;BME280;1284;53.520;10.248;2023-05-02T00:06:52;100774.41;;;16.31;68.98
2549;BME280;1284;53.520;10.248;2023-05-02T00:09:18;100774.81;;;16.33;69.20
2549;BME280;1284;53.520;10.248;2023-05-02T00:11:43;100771.72;;;16.09;70.74
2549;BME280;1284;53.520;10.248;2023-05-02T00:14:09;100770.56;;;16.14;70.62
2549;BME280;1284;53.520;10.248;2023-05-02T00:16:34;100775.63;;;16.08;71.49
2549;BME280;1284;53.520;10.248;2023-05-02T00:19:00;100779.09;;;16.19;71.28
2549;BME280;1284;53.520;10.248;2023-05-02T00:21:25;100776.75;;;16.11;72.00
2549;BME280;1284;53.520;10.248;2023-05-02T00:23:54;100779.47;;;16.07;71.90
2549;BME280;1284;53.520;10.248;2023-05-02T00:26:22;100776.78;;;16.00;72.57
2549;BME280;1284;53.520;10.248;2023-05-02T00:28:48;100762.03;;;15.94;73.35
2549;BME280;1284;53.520;10.248;2023-05-02T00:31:14;100772.91;;;15.91;73.92
2549;BME280;1284;53.520;10.248;2023-05-02T00:33:39;100768.59;;;15.93;74.47
2549;BME280;1284;53.520;10.248;2023-05-02T00:36:15;100775.59;;;16.01;73.92
2549;BME280;1284;53.520;10.248;2023-05-02T00:38:41;100787.25;;;15.98;74.64
2549;BME280;1284;53.520;10.248;2023-05-02T00:41:06;100774.84;;;16.04;74.11
2549;BME280;1284;53.520;10.248;2023-05-02T00:43:32;100775.97;;;16.07;74.14
2549;BME280;1284;53.520;10.248;2023-05-02T00:45:57;100779.09;;;16.09;74.09
2549;BME280;1284;53.520;10.248;2023-05-02T00:48:24;100779.09;;;16.05;74.55
2549;BME280;1284;53.520;10.248;2023-05-02T00:50:50;100783.34;;;15.85;75.74
2549;BME280;1284;53.520;10.248;2023-05-02T00:53:15;100787.25;;;15.95;75.10
2549;BME280;1284;53.520;10.248;2023-05-02T00:55:41;100784.53;;;16.02;74.69
2549;BME280;1284;53.520;10.248;2023-05-02T00:58:13;100783.75;;;15.94;75.04
2549;BME280;1284;53.520;10.248;2023-05-02T01:11:51;100769.78;;;15.92;75.88
2549;BME280;1284;53.520;10.248;2023-05-02T01:14:18;100766.69;;;15.90;76.34
2549;BME280;1284;53.520;10.248;2023-05-02T01:16:45;100769.00;;;15.92;76.77
2549;BME280;1284;53.520;10.248;2023-05-02T01:19:24;100774.44;;;15.92;76.33
2549;BME280;1284;53.520;10.248;2023-05-02T01:21:51;100764.34;;;15.82;76.63
2549;BME280;1284;53.520;10.248;2023-05-02T01:24:24;100768.63;;;15.79;77.34
2549;BME280;1284;53.520;10.248;2023-05-02T01:30:13;100768.97;;;15.74;78.20
2549;BME280;1284;53.520;10.248;2023-05-02T01:32:44;100770.53;;;15.89;77.20
2549;BME280;1284;53.520;10.248;2023-05-02T01:35:13;100781.44;;;15.93;76.93
2549;BME280;1284;53.520;10.248;2023-05-02T01:37:42;100776.75;;;15.83;77.18
2549;BME280;1284;53.520;10.248;2023-05-02T01:40:11;100772.09;;;15.83;76.83
2549;BME280;1284;53.520;10.248;2023-05-02T01:42:39;100774.03;;;15.83;77.65
2549;BME280;1284;53.520;10.248;2023-05-02T01:45:06;100771.34;;;15.83;77.64
2549;BME280;1284;53.520;10.248;2023-05-02T01:47:34;100776.75;;;15.86;77.95
2549;BME280;1284;53.520;10.248;2023-05-02T01:50:05;100782.19;;;15.93;77.14
2549;BME280;1284;53.520;10.248;2023-05-02T01:52:32;100778.69;;;15.82;77.64
2549;BME280;1284;53.520;10.248;2023-05-02T01:54:59;100778.31;;;15.80;77.83
2549;BME280;1284;53.520;10.248;2023-05-02T01:57:25;100784.88;;;15.76;78.35
2549;BME280;1284;53.520;10.248;2023-05-02T01:59:54;100777.91;;;15.82;78.02
2549;BME280;1284;53.520;10.248;2023-05-02T02:02:23;100791.09;;;15.76;78.52
2549;BME280;1284;53.520;10.248;2023-05-02T02:04:52;100785.66;;;15.76;78.62
2549;BME280;1284;53.520;10.248;2023-05-02T02:07:19;100783.72;;;15.87;78.25
2549;BME280;1284;53.520;10.248;2023-05-02T02:09:45;100788.38;;;15.80;78.42
2549;BME280;1284;53.520;10.248;2023-05-02T02:12:25;100796.53;;;15.76;79.10
2549;BME280;1284;53.520;10.248;2023-05-02T02:15:24;100796.91;;;15.71;78.95
2549;BME280;1284;53.520;10.248;2023-05-02T02:17:57;100791.50;;;15.68;79.68
2549;BME280;1284;53.520;10.248;2023-05-02T02:20:27;100798.47;;;15.76;78.97
2549;BME280;1284;53.520;10.248;2023-05-02T02:22:55;100800.00;;;15.59;79.46
2549;BME280;1284;53.520;10.248;2023-05-02T02:25:23;100799.59;;;15.54;80.38
2549;BME280;1284;53.520;10.248;2023-05-02T02:27:52;100798.81;;;15.60;80.52
2549;BME280;1284;53.520;10.248;2023-05-02T02:30:19;100803.06;;;15.51;81.36
2549;BME280;1284;53.520;10.248;2023-05-02T02:32:45;100799.97;;;15.49;81.95
2549;BME280;1284;53.520;10.248;2023-05-02T02:35:10;100810.09;;;15.69;80.99
2549;BME280;1284;53.520;10.248;2023-05-02T02:41:06;100806.97;;;15.53;81.86
2549;BME280;1284;53.520;10.248;2023-05-02T02:46:28;100822.72;;;15.23;84.01
2549;BME280;1284;53.520;10.248;2023-05-02T02:49:17;100822.72;;;15.23;83.69
2549;BME280;1284;53.520;10.248;2023-05-02T02:52:20;100835.13;;;15.24;84.20
2549;BME280;1284;53.520;10.248;2023-05-02T02:54:57;100823.09;;;15.21;85.38
2549;BME280;1284;53.520;10.248;2023-05-02T02:57:30;100837.91;;;15.34;85.31
2549;BME280;1284;53.520;10.248;2023-05-02T03:00:09;100840.22;;;15.29;85.18
2549;BME280;1284;53.520;10.248;2023-05-02T03:02:36;100852.63;;;15.33;84.42
2549;BME280;1284;53.520;10.248;2023-05-02T03:05:04;100843.25;;;15.20;85.46
2549;BME280;1284;53.520;10.248;2023-05-02T03:07:30;100849.06;;;15.19;85.07
2549;BME280;1284;53.520;10.248;2023-05-02T03:09:57;100861.44;;;15.16;85.53
2549;BME280;1284;53.520;10.248;2023-05-02T03:12:23;100860.34;;;15.28;85.00
2549;BME280;1284;53.520;10.248;2023-05-02T03:14:49;100872.38;;;15.30;83.99
2549;BME280;1284;53.520;10.248;2023-05-02T03:17:16;100880.47;;;15.20;84.09
2549;BME280;1284;53.520;10.248;2023-05-02T03:19:41;100887.41;;;15.14;84.02
2549;BME280;1284;53.520;10.248;2023-05-02T03:22:07;100895.09;;;15.05;83.41
2549;BME280;1284;53.520;10.248;2023-05-02T03:24:34;100900.38;;;14.80;83.49
2549;BME280;1284;53.520;10.248;2023-05-02T03:27:01;100905.66;;;14.63;83.81
2549;BME280;1284;53.520;10.248;2023-05-02T03:29:32;100917.16;;;14.45;83.84
2549;BME280;1284;53.520;10.248;2023-05-02T03:31:57;100916.50;;;14.63;81.97
2549;BME280;1284;53.520;10.248;2023-05-02T03:34:24;100923.41;;;14.53;82.19
2549;BME280;1284;53.520;10.248;2023-05-02T03:36:50;100933.06;;;14.51;81.62
2549;BME280;1284;53.520;10.248;2023-05-02T03:39:16;100932.31;;;14.54;80.60
2549;BME280;1284;53.520;10.248;2023-05-02T03:41:43;100940.59;;;14.31;81.09
2549;BME280;1284;53.520;10.248;2023-05-02T03:44:12;100948.63;;;14.20;80.86
2549;BME280;1284;53.520;10.248;2023-05-02T03:46:38;100954.03;;;14.20;81.59
2549;BME280;1284;53.520;10.248;2023-05-02T03:49:07;100969.47;;;14.16;78.17
2549;BME280;1284;53.520;10.248;2023-05-02T03:51:33;100970.75;;;13.93;78.55
2549;BME280;1284;53.520;10.248;2023-05-02T03:54:00;100977.09;;;13.74;78.53
2549;BME280;1284;53.520;10.248;2023-05-02T03:56:27;100979.72;;;13.71;79.24
2549;BME280;1284;53.520;10.248;2023-05-02T03:59:07;100978.78;;;13.56;78.02
2549;BME280;1284;53.520;10.248;2023-05-02T04:01:33;100984.56;;;13.54;76.90
2549;BME280;1284;53.520;10.248;2023-05-02T04:04:00;100988.03;;;13.55;76.15
2549;BME280;1284;53.520;10.248;2023-05-02T04:06:29;100989.53;;;13.49;74.85
2549;BME280;1284;53.520;10.248;2023-05-02T04:08:59;101001.44;;;13.44;74.86
2549;BME280;1284;53.520;10.248;2023-05-02T04:11:29;101005.53;;;13.35;75.07
2549;BME280;1284;53.520;10.248;2023-05-02T04:13:55;101012.44;;;13.32;75.59
2549;BME280;1284;53.520;10.248;2023-05-02T04:16:20;101011.63;;;13.28;75.11
2549;BME280;1284;53.520;10.248;2023-05-02T04:18:46;101007.78;;;13.29;74.43
2549;BME280;1284;53.520;10.248;2023-05-02T04:21:12;101018.91;;;13.24;75.17
2549;BME280;1284;53.520;10.248;2023-05-02T04:23:38;101021.91;;;13.45;74.01
2549;BME280;1284;53.520;10.248;2023-05-02T04:26:04;101033.31;;;13.32;74.15
2549;BME280;1284;53.520;10.248;2023-05-02T04:28:51;101032.13;;;13.55;72.20
2549;BME280;1284;53.520;10.248;2023-05-02T04:31:16;101047.00;;;13.42;71.53
2549;BME280;1284;53.520;10.248;2023-05-02T04:33:43;101048.81;;;13.35;71.11
2549;BME280;1284;53.520;10.248;2023-05-02T04:36:10;101053.63;;;13.22;71.75
2549;BME280;1284;53.520;10.248;2023-05-02T04:38:39;101059.13;;;13.03;72.34
2549;BME280;1284;53.520;10.248;2023-05-02T04:41:05;101071.50;;;13.04;72.93
2549;BME280;1284;53.520;10.248;2023-05-02T04:43:38;101066.41;;;13.03;71.86
2549;BME280;1284;53.520;10.248;2023-05-02T04:46:03;101072.00;;;12.91;71.44
2549;BME280;1284;53.520;10.248;2023-05-02T04:48:33;101080.38;;;13.05;70.50
2549;BME280;1284;53.520;10.248;2023-05-02T04:50:58;101089.97;;;13.02;69.78
2549;BME280;1284;53.520;10.248;2023-05-02T04:53:25;101095.13;;;12.88;68.85
2549;BME280;1284;53.520;10.248;2023-05-02T04:55:51;101099.66;;;12.61;69.21
2549;BME280;1284;53.520;10.248;2023-05-02T04:58:17;101107.03;;;12.64;70.45
2549;BME280;1284;53.520;10.248;2023-05-02T05:00:46;101111.94;;;12.78;70.05
2549;BME280;1284;53.520;10.248;2023-05-02T05:03:12;101129.53;;;12.91;69.44
2549;BME280;1284;53.520;10.248;2023-05-02T05:05:37;101124.88;;;12.88;69.59
2549;BME280;1284;53.520;10.248;2023-05-02T05:08:06;101118.81;;;12.95;68.55
2549;BME280;1284;53.520;10.248;2023-05-02T05:10:34;101116.41;;;12.90;69.11
2549;BME280;1284;53.520;10.248;2023-05-02T05:13:00;101117.56;;;12.89;69.07
2549;BME280;1284;53.520;10.248;2023-05-02T05:15:26;101119.81;;;12.87;68.01
2549;BME280;1284;53.520;10.248;2023-05-02T05:17:55;101129.38;;;12.81;68.00
2549;BME280;1284;53.520;10.248;2023-05-02T05:20:22;101135.13;;;12.79;68.27
2549;BME280;1284;53.520;10.248;2023-05-02T05:25:17;101144.56;;;13.08;66.65
2549;BME280;1284;53.520;10.248;2023-05-02T05:27:45;101144.41;;;13.01;67.67
2549;BME280;1284;53.520;10.248;2023-05-02T05:30:11;101160.75;;;12.85;66.93
2549;BME280;1284;53.520;10.248;2023-05-02T05:32:38;101160.66;;;12.82;64.94
2549;BME280;1284;53.520;10.248;2023-05-02T05:35:04;101158.25;;;12.77;63.50
2549;BME280;1284;53.520;10.248;2023-05-02T05:37:30;101157.69;;;12.67;63.36
2549;BME280;1284;53.520;10.248;2023-05-02T05:39:57;101163.50;;;12.89;62.15
2549;BME280;1284;53.520;10.248;2023-05-02T05:42:26;101165.00;;;12.86;60.08
2549;BME280;1284;53.520;10.248;2023-05-02T05:44:56;101178.50;;;12.86;59.63
2549;BME280;1284;53.520;10.248;2023-05-02T05:47:21;101183.00;;;12.79;59.25
2549;BME280;1284;53.520;10.248;2023-05-02T05:49:55;101189.97;;;12.99;59.27
2549;BME280;1284;53.520;10.248;2023-05-02T05:52:23;101194.09;;;12.93;59.15
2549;BME280;1284;53.520;10.248;2023-05-02T05:54:54;101193.25;;;12.89;58.76
2549;BME280;1284;53.520;10.248;2023-05-02T05:57:21;101199.28;;;12.82;59.17
2549;BME280;1284;53.520;10.248;2023-05-02T05:59:47;101196.94;;;12.61;59.27
2549;BME280;1284;53.520;10.248;2023-05-02T06:02:14;101203.75;;;12.55;59.44
2549;BME280;1284;53.520;10.248;2023-05-02T06:07:07;101220.28;;;12.69;59.95
2549;BME280;1284;53.520;10.248;2023-05-02T06:09:32;101221.75;;;12.86;59.01
2549;BME280;1284;53.520;10.248;2023-05-02T06:11:58;101226.09;;;12.91;57.76
2549;BME280;1284;53.520;10.248;2023-05-02T06:14:23;101239.03;;;12.82;58.27
2549;BME280;1284;53.520;10.248;2023-05-02T06:16:50;101229.63;;;12.56;59.60
2549;BME280;1284;53.520;10.248;2023-05-02T06:19:16;101236.13;;;12.71;60.00
2549;BME280;1284;53.520;10.248;2023-05-02T06:21:41;101236.13;;;12.90;59.71
2549;BME280;1284;53.520;10.248;2023-05-02T06:24:07;101237.75;;;12.76;60.07
2549;BME280;1284;53.520;10.248;2023-05-02T06:26:32;101242.75;;;12.74;60.94
2549;BME280;1284;53.520;10.248;2023-05-02T06:28:58;101245.16;;;12.79;60.05
2549;BME280;1284;53.520;10.248;2023-05-02T06:31:23;101244.97;;;12.87;58.63
2549;BME280;1284;53.520;10.248;2023-05-02T06:33:48;101255.97;;;12.98;57.85
2549;BME280;1284;53.520;10.248;2023-05-02T06:36:14;101259.53;;;12.83;58.10
2549;BME280;1284;53.520;10.248;2023-05-02T06:38:39;101266.22;;;12.89;57.63
2549;BME280;1284;53.520;10.248;2023-05-02T06:41:05;101262.66;;;12.85;58.33
2549;BME280;1284;53.520;10.248;2023-05-02T06:43:31;101273.13;;;12.86;58.17
2549;BME280;1284;53.520;10.248;2023-05-02T06:45:57;101281.16;;;12.83;58.65
2549;BME280;1284;53.520;10.248;2023-05-02T06:48:23;101291.19;;;12.82;58.53
2549;BME280;1284;53.520;10.248;2023-05-02T06:50:50;101289.41;;;12.90;57.48
2549;BME280;1284;53.520;10.248;2023-05-02T06:53:17;101296.81;;;12.93;57.41
2549;BME280;1284;53.520;10.248;2023-05-02T06:55:43;101301.84;;;12.75;57.96
2549;BME280;1284;53.520;10.248;2023-05-02T06:58:08;101302.00;;;12.82;57.37
2549;BME280;1284;53.520;10.248;2023-05-02T07:00:34;101309.19;;;12.94;57.18
2549;BME280;1284;53.520;10.248;2023-05-02T07:02:59;101309.13;;;12.90;56.60
2549;BME280;1284;53.520;10.248;2023-05-02T07:05:25;101314.47;;;12.87;56.81
2549;BME280;1284;53.520;10.248;2023-05-02T07:07:50;101326.28;;;12.98;56.20
2549;BME280;1284;53.520;10.248;2023-05-02T07:10:16;101325.22;;;13.02;55.80
2549;BME280;1284;53.520;10.248;2023-05-02T07:12:41;101329.28;;;12.93;56.09
2549;BME280;1284;53.520;10.248;2023-05-02T07:15:07;101325.63;;;12.85;56.08
2549;BME280;1284;53.520;10.248;2023-05-02T07:17:33;101325.75;;;12.73;56.23
2549;BME280;1284;53.520;10.248;2023-05-02T07:19:58;101338.03;;;12.70;56.68
2549;BME280;1284;53.520;10.248;2023-05-02T07:22:24;101333.03;;;12.88;55.40
2549;BME280;1284;53.520;10.248;2023-05-02T07:25:16;101342.09;;;12.80;54.64
2549;BME280;1284;53.520;10.248;2023-05-02T07:27:42;101340.69;;;12.86;53.57
2549;BME280;1284;53.520;10.248;2023-05-02T07:30:13;101332.63;;;12.70;54.33
2549;BME280;1284;53.520;10.248;2023-05-02T07:32:39;101351.19;;;12.72;54.31
2549;BME280;1284;53.520;10.248;2023-05-02T07:35:04;101346.47;;;12.85;53.70
2549;BME280;1284;53.520;10.248;2023-05-02T07:37:32;101345.16;;;12.79;53.83
2549;BME280;1284;53.520;10.248;2023-05-02T07:39:58;101355.38;;;12.85;54.33
2549;BME280;1284;53.520;10.248;2023-05-02T07:42:28;101358.25;;;12.77;54.09
2549;BME280;1284;53.520;10.248;2023-05-02T07:44:54;101368.09;;;12.85;54.32
2549;BME280;1284;53.520;10.248;2023-05-02T07:47:19;101357.00;;;12.90;53.89
2549;BME280;1284;53.520;10.248;2023-05-02T07:49:50;101366.91;;;13.01;53.52
2549;BME280;1284;53.520;10.248;2023-05-02T07:52:16;101361.25;;;13.06;53.19
2549;BME280;1284;53.520;10.248;2023-05-02T07:54:41;101375.38;;;13.00;53.34
2549;BME280;1284;53.520;10.248;2023-05-02T07:57:07;101373.09;;;13.17;52.87
2549;BME280;1284;53.520;10.248;2023-05-02T07:59:33;101372.59;;;13.12;52.44
2549;BME280;1284;53.520;10.248;2023-05-02T08:01:58;101375.00;;;13.17;52.50
2549;BME280;1284;53.520;10.248;2023-05-02T08:04:24;101386.56;;;13.33;52.39
2549;BME280;1284;53.520;10.248;2023-05-02T08:06:50;101380.84;;;13.38;52.49
2549;BME280;1284;53.520;10.248;2023-05-02T08:09:15;101390.91;;;13.56;51.54
2549;BME280;1284;53.520;10.248;2023-05-02T08:11:41;101393.41;;;13.65;51.69
2549;BME280;1284;53.520;10.248;2023-05-02T08:14:06;101401.44;;;13.81;50.95
2549;BME280;1284;53.520;10.248;2023-05-02T08:16:32;101402.22;;;13.81;50.25
2549;BME280;1284;53.520;10.248;2023-05-02T08:18:57;101411.19;;;13.85;50.02
2549;BME280;1284;53.520;10.248;2023-05-02T08:21:23;101414.13;;;13.77;49.53
2549;BME280;1284;53.520;10.248;2023-05-02T08:23:48;101414.59;;;13.82;49.57
2549;BME280;1284;53.520;10.248;2023-05-02T08:26:14;101418.66;;;13.92;48.68
2549;BME280;1284;53.520;10.248;2023-05-02T08:28:40;101422.03;;;13.66;49.29
2549;BME280;1284;53.520;10.248;2023-05-02T08:31:05;101420.63;;;13.72;49.76
2549;BME280;1284;53.520;10.248;2023-05-02T08:33:31;101424.75;;;13.85;49.22
2549;BME280;1284;53.520;10.248;2023-05-02T08:35:56;101424.16;;;13.95;50.06
2549;BME280;1284;53.520;10.248;2023-05-02T08:38:22;101431.09;;;14.15;50.21
2549;BME280;1284;53.520;10.248;2023-05-02T08:40:47;101436.72;;;14.26;49.58
2549;BME280;1284;53.520;10.248;2023-05-02T08:43:15;101437.38;;;14.19;49.90
2549;BME280;1284;53.520;10.248;2023-05-02T08:45:44;101435.38;;;14.35;48.93
2549;BME280;1284;53.520;10.248;2023-05-02T08:48:11;101452.44;;;14.36;48.73
2549;BME280;1284;53.520;10.248;2023-05-02T08:50:42;101443.47;;;14.55;49.64
2549;BME280;1284;53.520;10.248;2023-05-02T08:53:11;101442.59;;;14.73;49.39
2549;BME280;1284;53.520;10.248;2023-05-02T08:55:40;101447.00;;;14.81;48.80
2549;BME280;1284;53.520;10.248;2023-05-02T08:58:09;101451.00;;;14.91;48.60
2549;BME280;1284;53.520;10.248;2023-05-02T09:00:38;101458.13;;;14.99;48.20
2549;BME280;1284;53.520;10.248;2023-05-02T09:03:06;101468.31;;;15.05;48.53
2549;BME280;1284;53.520;10.248;2023-05-02T09:05:39;101460.78;;;15.21;48.27
2549;BME280;1284;53.520;10.248;2023-05-02T09:08:06;101463.50;;;15.21;48.37
2549;BME280;1284;53.520;10.248;2023-05-02T09:10:34;101472.75;;;15.17;47.67
2549;BME280;1284;53.520;10.248;2023-05-02T09:16:21;101481.03;;;15.27;47.18
2549;BME280;1284;53.520;10.248;2023-05-02T09:18:49;101485.28;;;15.25;46.98
2549;BME280;1284;53.520;10.248;2023-05-02T09:21:17;101480.88;;;15.17;47.16
2549;BME280;1284;53.520;10.248;2023-05-02T09:23:45;101492.25;;;15.26;47.94
2549;BME280;1284;53.520;10.248;2023-05-02T09:26:23;101495.31;;;15.47;47.27
2549;BME280;1284;53.520;10.248;2023-05-02T09:28:53;101497.56;;;15.42;46.59
2549;BME280;1284;53.520;10.248;2023-05-02T09:33:50;101490.53;;;15.41;46.78
2549;BME280;1284;53.520;10.248;2023-05-02T09:36:17;101501.28;;;15.56;46.22
2549;BME280;1284;53.520;10.248;2023-05-02T09:38:46;101502.78;;;15.54;46.32
2549;BME280;1284;53.520;10.248;2023-05-02T09:41:11;101515.56;;;15.53;46.47
2549;BME280;1284;53.520;10.248;2023-05-02T09:43:38;101510.28;;;15.64;45.72
2549;BME280;1284;53.520;10.248;2023-05-02T09:46:09;101516.03;;;15.59;45.94
2549;BME280;1284;53.520;10.248;2023-05-02T09:48:55;101523.25;;;15.48;45.05
2549;BME280;1284;53.520;10.248;2023-05-02T09:51:22;101509.84;;;15.35;45.89
2549;BME280;1284;53.520;10.248;2023-05-02T09:53:48;101522.81;;;15.46;45.96
2549;BME280;1284;53.520;10.248;2023-05-02T09:59:13;101520.66;;;15.84;46.81
2549;BME280;1284;53.520;10.248;2023-05-02T10:01:40;101520.31;;;16.22;46.39
2549;BME280;1284;53.520;10.248;2023-05-02T10:04:11;101525.34;;;16.54;45.57
2549;BME280;1284;53.520;10.248;2023-05-02T10:06:43;101517.28;;;17.04;46.23
2549;BME280;1284;53.520;10.248;2023-05-02T10:09:10;101518.34;;;17.47;45.08
2549;BME280;1284;53.520;10.248;2023-05-02T10:11:41;101513.56;;;17.91;45.07
2549;BME280;1284;53.520;10.248;2023-05-02T10:14:08;101514.50;;;18.38;43.73
2549;BME280;1284;53.520;10.248;2023-05-02T10:16:37;101516.88;;;18.60;42.08
2549;BME280;1284;53.520;10.248;2023-05-02T10:19:09;101518.06;;;18.63;42.18
2549;BME280;1284;53.520;10.248;2023-05-02T10:21:37;101517.59;;;18.33;41.93
2549;BME280;1284;53.520;10.248;2023-05-02T10:24:04;101529.28;;;18.33;41.41
2549;BME280;1284;53.520;10.248;2023-05-02T10:26:30;101527.31;;;18.23;41.08
2549;BME280;1284;53.520;10.248;2023-05-02T10:28:59;101526.88;;;18.18;41.80
2549;BME280;1284;53.520;10.248;2023-05-02T10:31:25;101528.00;;;17.99;42.90
2549;BME280;1284;53.520;10.248;2023-05-02T10:33:51;101528.72;;;17.85;43.11
2549;BME280;1284;53.520;10.248;2023-05-02T10:36:21;101540.78;;;17.84;43.08
2549;BME280;1284;53.520;10.248;2023-05-02T10:41:16;101544.81;;;17.47;42.79
2549;BME280;1284;53.520;10.248;2023-05-02T10:43:47;101539.66;;;17.35;43.30
2549;BME280;1284;53.520;10.248;2023-05-02T10:46:33;101551.19;;;17.14;44.41
2549;BME280;1284;53.520;10.248;2023-05-02T10:51:28;101558.47;;;17.03;43.92
2549;BME280;1284;53.520;10.248;2023-05-02T10:54:18;101558.78;;;16.94;44.42
2549;BME280;1284;53.520;10.248;2023-05-02T10:59:29;101568.28;;;16.71;46.38
2549;BME280;1284;53.520;10.248;2023-05-02T11:01:55;101573.38;;;16.76;46.07
2549;BME280;1284;53.520;10.248;2023-05-02T11:04:22;101558.16;;;16.68;46.77
2549;BME280;1284;53.520;10.248;2023-05-02T11:11:54;101563.59;;;17.11;47.07
2549;BME280;1284;53.520;10.248;2023-05-02T11:24:44;101562.97;;;19.29;39.96
2549;BME280;1284;53.520;10.248;2023-05-02T11:29:55;101560.63;;;18.85;40.47
2549;BME280;1284;53.520;10.248;2023-05-02T11:32:22;101567.19;;;18.66;40.72
2549;BME280;1284;53.520;10.248;2023-05-02T11:34:48;101582.31;;;18.43;41.57
2549;BME280;1284;53.520;10.248;2023-05-02T11:37:18;101568.97;;;18.17;41.92
2549;BME280;1284;53.520;10.248;2023-05-02T11:39:45;101572.09;;;18.15;42.27
2549;BME280;1284;53.520;10.248;2023-05-02T11:45:12;101581.69;;;17.88;43.29
2549;BME280;1284;53.520;10.248;2023-05-02T11:47:38;101593.19;;;17.60;44.59
2549;BME280;1284;53.520;10.248;2023-05-02T11:50:04;101594.59;;;17.44;44.05
2549;BME280;1284;53.520;10.248;2023-05-02T11:52:36;101591.38;;;17.31;44.50
2549;BME280;1284;53.520;10.248;2023-05-02T11:55:05;101591.00;;;17.33;44.98
2549;BME280;1284;53.520;10.248;2023-05-02T11:57:34;101598.84;;;17.41;43.77
2549;BME280;1284;53.520;10.248;2023-05-02T11:59:59;101598.41;;;17.32;43.04
2549;BME280;1284;53.520;10.248;2023-05-02T12:02:39;101599.34;;;17.54;43.73
2549;BME280;1284;53.520;10.248;2023-05-02T12:05:09;101596.72;;;17.64;43.40
2549;BME280;1284;53.520;10.248;2023-05-02T12:07:45;101601.16;;;17.86;41.33
2549;BME280;1284;53.520;10.248;2023-05-02T12:10:12;101614.72;;;17.83;41.95
2549;BME280;1284;53.520;10.248;2023-05-02T12:12:40;101609.28;;;17.79;42.58
2549;BME280;1284;53.520;10.248;2023-05-02T12:15:10;101614.63;;;17.65;42.94
2549;BME280;1284;53.520;10.248;2023-05-02T12:17:38;101617.63;;;17.50;42.77
2549;BME280;1284;53.520;10.248;2023-05-02T12:20:08;101614.28;;;17.27;43.20
2549;BME280;1284;53.520;10.248;2023-05-02T12:22:35;101625.16;;;17.23;43.34
2549;BME280;1284;53.520;10.248;2023-05-02T12:25:01;101616.56;;;17.21;43.73
2549;BME280;1284;53.520;10.248;2023-05-02T12:27:28;101623.50;;;17.15;43.24
2549;BME280;1284;53.520;10.248;2023-05-02T12:29:53;101633.69;;;17.22;43.29
2549;BME280;1284;53.520;10.248;2023-05-02T12:32:29;101634.25;;;17.38;42.77
2549;BME280;1284;53.520;10.248;2023-05-02T12:34:56;101634.94;;;17.31;43.25
2549;BME280;1284;53.520;10.248;2023-05-02T12:37:23;101626.66;;;17.17;42.67
2549;BME280;1284;53.520;10.248;2023-05-02T12:39:49;101632.06;;;17.13;42.94
2549;BME280;1284;53.520;10.248;2023-05-02T12:42:16;101634.75;;;17.10;42.68
2549;BME280;1284;53.520;10.248;2023-05-02T12:44:44;101639.84;;;17.15;42.27
2549;BME280;1284;53.520;10.248;2023-05-02T12:47:11;101634.41;;;17.15;43.23
2549;BME280;1284;53.520;10.248;2023-05-02T12:49:54;101656.47;;;17.03;44.09
2549;BME280;1284;53.520;10.248;2023-05-02T12:52:50;101652.78;;;17.25;43.20
2549;BME280;1284;53.520;10.248;2023-05-02T12:55:23;101644.44;;;17.07;43.69
2549;BME280;1284;53.520;10.248;2023-05-02T12:57:49;101655.63;;;16.95;43.51
2549;BME280;1284;53.520;10.248;2023-05-02T13:00:16;101640.84;;;16.96;43.54
2549;BME280;1284;53.520;10.248;2023-05-02T13:02:42;101651.28;;;16.91;44.16
2549;BME280;1284;53.520;10.248;2023-05-02T13:05:18;101658.34;;;16.95;44.51
2549;BME280;1284;53.520;10.248;2023-05-02T13:07:43;101668.03;;;16.93;43.85
2549;BME280;1284;53.520;10.248;2023-05-02T13:10:11;101668.09;;;17.00;43.86
2549;BME280;1284;53.520;10.248;2023-05-02T13:12:38;101669.00;;;17.11;42.87
2549;BME280;1284;53.520;10.248;2023-05-02T13:15:05;101669.16;;;16.92;43.59
2549;BME280;1284;53.520;10.248;2023-05-02T13:17:34;101665.97;;;16.83;44.00
2549;BME280;1284;53.520;10.248;2023-05-02T13:19:59;101681.69;;;17.00;44.22
2549;BME280;1284;53.520;10.248;2023-05-02T13:22:26;101672.34;;;16.97;43.68
2549;BME280;1284;53.520;10.248;2023-05-02T13:24:52;101668.66;;;16.79;44.08
2549;BME280;1284;53.520;10.248;2023-05-02T13:27:18;101665.78;;;16.69;45.35
2549;BME280;1284;53.520;10.248;2023-05-02T13:29:44;101679.16;;;16.81;45.12
2549;BME280;1284;53.520;10.248;2023-05-02T13:32:10;101681.50;;;16.82;44.56
2549;BME280;1284;53.520;10.248;2023-05-02T13:34:36;101684.41;;;16.67;44.69
2549;BME280;1284;53.520;10.248;2023-05-02T13:37:01;101683.78;;;16.77;45.67
2549;BME280;1284;53.520;10.248;2023-05-02T13:39:27;101683.53;;;16.89;44.90
2549;BME280;1284;53.520;10.248;2023-05-02T13:41:52;101684.75;;;16.95;44.96
2549;BME280;1284;53.520;10.248;2023-05-02T13:44:18;101697.00;;;17.11;43.79
2549;BME280;1284;53.520;10.248;2023-05-02T13:46:43;101697.66;;;17.01;42.55
2549;BME280;1284;53.520;10.248;2023-05-02T13:49:09;101692.53;;;16.93;42.91
2549;BME280;1284;53.520;10.248;2023-05-02T13:51:34;101697.72;;;17.05;42.89
2549;BME280;1284;53.520;10.248;2023-05-02T13:54:00;101699.47;;;16.90;43.92
2549;BME280;1284;53.520;10.248;2023-05-02T13:56:26;101714.59;;;16.88;43.22
2549;BME280;1284;53.520;10.248;2023-05-02T13:58:51;101702.53;;;16.85;44.55
2549;BME280;1284;53.520;10.248;2023-05-02T14:01:17;101697.63;;;16.98;44.53
2549;BME280;1284;53.520;10.248;2023-05-02T14:06:08;101703.47;;;17.00;44.16
2549;BME280;1284;53.520;10.248;2023-05-02T14:08:34;101704.97;;;16.94;44.05
2549;BME280;1284;53.520;10.248;2023-05-02T14:10:59;101699.03;;;16.85;44.04